Terminal Aerodrome Forecast
Issued by NWS Glasgow, MT

Home | Current Version | Previous Version | Text Only | Print | Product List | Glossary On
Versions: 1 2 3 4 5 6 7 8 9 10 11 12 13 14 15 16 17
024
FTUS45 KGGW 070520
TAFGGW
TAF
KGGW 070520Z 0706/0806 29015G22KT P6SM SCT100
     FM071600 31023G35KT P6SM FEW200
     FM080000 31014KT P6SM BKN200=

USA.gov is the U.S. government's official web portal to all federal, state and local government web resources and services.